Time;durP1;ratioP1;P1;durP2;ratioP2;P2;SDS_P1;SDS_P2;PMS_P1;PMS_P2;Temp;Humidity;BMP_temperature;BMP_pressure;BME280_temperature;BME280_humidity;BME280_pressure;Samples;Min_cycle;Max_cycle;Signal;HPM_P1;HPM_P2
2023/09/01 00:01:01;;;;;;;8.00;5.20;;;16.40;99.90;;;;;;5065923;28;20043;-73
2023/09/01 00:03:26;;;;;;;9.38;5.50;;;16.40;99.90;;;;;;5068045;28;20111;-74
2023/09/01 00:05:52;;;;;;;8.80;4.57;;;16.40;99.90;;;;;;5068841;28;20103;-73
2023/09/01 00:08:18;;;;;;;10.60;5.55;;;16.40;99.90;;;;;;5069752;28;20017;-73
2023/09/01 00:10:44;;;;;;;8.93;4.97;;;16.40;99.90;;;;;;5068658;28;20016;-74
2023/09/01 00:13:10;;;;;;;10.52;5.68;;;16.40;99.90;;;;;;5060645;28;20425;-74
2023/09/01 00:15:35;;;;;;;7.97;4.90;;;16.30;99.90;;;;;;5062985;28;20025;-73
2023/09/01 00:18:02;;;;;;;9.32;6.78;;;16.30;99.90;;;;;;5048593;28;20024;-74
2023/09/01 00:20:28;;;;;;;8.63;5.32;;;16.30;99.90;;;;;;5050073;28;20150;-73
2023/09/01 00:22:53;;;;;;;10.88;5.63;;;16.30;99.90;;;;;;5050064;28;20056;-73
2023/09/01 00:25:19;;;;;;;10.43;5.47;;;16.30;99.90;;;;;;5049080;28;20076;-74
2023/09/01 00:27:45;;;;;;;10.95;5.35;;;16.30;99.90;;;;;;5050270;28;20415;-74
2023/09/01 00:30:11;;;;;;;9.20;5.32;;;16.30;99.90;;;;;;5049934;28;20025;-73
2023/09/01 00:32:36;;;;;;;9.27;5.88;;;16.30;99.90;;;;;;5049099;28;20025;-73
2023/09/01 00:35:05;;;;;;;10.73;5.65;;;16.20;99.90;;;;;;5041297;28;20017;-73
2023/09/01 00:37:31;;;;;;;10.52;6.35;;;16.20;99.90;;;;;;5048796;28;20025;-74
2023/09/01 00:39:57;;;;;;;10.98;6.20;;;16.20;99.90;;;;;;5050321;28;20359;-73
2023/09/01 00:42:22;;;;;;;9.57;5.70;;;16.20;99.90;;;;;;5049423;28;20032;-74
2023/09/01 00:44:48;;;;;;;8.38;5.30;;;16.10;99.90;;;;;;5049321;28;20481;-73
2023/09/01 00:47:14;;;;;;;8.63;5.13;;;16.10;99.90;;;;;;5049438;28;20029;-73
2023/09/01 00:49:40;;;;;;;9.30;6.90;;;16.10;99.90;;;;;;5052333;28;20074;-73
2023/09/01 00:52:07;;;;;;;7.65;5.63;;;16.10;99.90;;;;;;5068759;28;20089;-74
2023/09/01 00:54:34;;;;;;;9.20;5.63;;;16.10;99.90;;;;;;5067873;28;20032;-74
2023/09/01 00:56:59;;;;;;;6.53;5.88;;;16.10;99.90;;;;;;5068879;28;20028;-73
2023/09/01 00:59:25;;;;;;;10.15;5.32;;;16.00;99.90;;;;;;5064310;28;20489;-73
2023/09/01 01:01:52;;;;;;;8.07;5.22;;;16.10;99.90;;;;;;5049084;28;20021;-74
2023/09/01 01:04:20;;;;;;;14.18;7.03;;;16.10;99.90;;;;;;5049199;28;20092;-74
2023/09/01 01:07:18;;;;;;;7.40;4.93;;;16.00;99.90;;;;;;5059583;28;20020;-74
2023/09/01 01:09:56;;;;;;;12.80;6.50;;;16.00;99.90;;;;;;5046285;28;20044;-74
2023/09/01 01:12:34;;;;;;;7.63;5.40;;;16.00;99.90;;;;;;5068064;28;20060;-74
2023/09/01 01:15:08;;;;;;;12.38;6.75;;;16.00;99.90;;;;;;5056647;28;20079;-73
2023/09/01 01:17:38;;;;;;;8.88;6.68;;;15.90;99.90;;;;;;5047866;28;20029;-73
2023/09/01 01:20:13;;;;;;;8.27;6.45;;;15.90;99.90;;;;;;5048762;28;20020;-73
2023/09/01 01:22:42;;;;;;;11.50;5.97;;;15.90;99.90;;;;;;5067925;28;20025;-73
2023/09/01 01:25:10;;;;;;;6.03;5.40;;;15.80;99.90;;;;;;5066649;28;20028;-74
2023/09/01 01:27:36;;;;;;;10.95;5.88;;;15.80;99.90;;;;;;5064576;28;20447;-74
2023/09/01 01:30:04;;;;;;;9.68;5.53;;;15.80;99.90;;;;;;5064335;28;20029;-74
2023/09/01 01:32:30;;;;;;;10.93;6.72;;;15.80;99.90;;;;;;5058555;28;20498;-73
2023/09/01 01:35:18;;;;;;;14.43;7.00;;;15.70;99.90;;;;;;5061939;28;20091;-74
2023/09/01 01:37:57;;;;;;;7.18;6.22;;;15.70;99.90;;;;;;5066595;28;20017;-73
2023/09/01 01:40:24;;;;;;;9.88;6.00;;;15.70;99.90;;;;;;5041655;28;20069;-73
2023/09/01 01:42:51;;;;;;;9.63;6.50;;;15.60;99.90;;;;;;5067752;28;20024;-73
2023/09/01 01:45:21;;;;;;;9.52;6.20;;;15.60;99.90;;;;;;5068549;28;20025;-73
2023/09/01 01:47:51;;;;;;;11.73;6.07;;;15.50;99.90;;;;;;5059295;28;20031;-74
2023/09/01 01:50:17;;;;;;;8.80;5.97;;;15.50;99.90;;;;;;5049338;28;20463;-74
2023/09/01 01:52:43;;;;;;;11.10;7.18;;;15.40;99.90;;;;;;5066503;28;20025;-73
2023/09/01 01:55:09;;;;;;;11.30;7.05;;;15.40;99.90;;;;;;5067633;28;20102;-74
2023/09/01 01:57:36;;;;;;;8.25;5.85;;;15.30;99.90;;;;;;5067254;28;20036;-73
2023/09/01 02:00:03;;;;;;;10.30;6.20;;;15.30;99.90;;;;;;5065365;28;20099;-73
2023/09/01 02:02:29;;;;;;;9.98;7.18;;;15.30;99.90;;;;;;5062691;28;20028;-74
2023/09/01 02:04:54;;;;;;;13.65;6.40;;;15.30;99.90;;;;;;5067504;28;20021;-73
2023/09/01 02:07:20;;;;;;;10.85;6.65;;;15.30;99.90;;;;;;5065796;28;20318;-73
2023/09/01 02:09:45;;;;;;;7.28;5.60;;;15.20;99.90;;;;;;5056649;28;20087;-74
2023/09/01 02:12:11;;;;;;;9.07;6.20;;;15.20;99.90;;;;;;5067300;28;20021;-74
2023/09/01 02:14:36;;;;;;;7.93;6.05;;;15.20;99.90;;;;;;5067889;28;20028;-74
2023/09/01 02:17:06;;;;;;;10.90;6.07;;;15.20;99.90;;;;;;5063701;28;20029;-74
2023/09/01 02:19:32;;;;;;;13.70;6.78;;;15.20;99.90;;;;;;5067343;28;20121;-73
2023/09/01 02:21:58;;;;;;;8.25;5.90;;;15.20;99.90;;;;;;5068151;28;20534;-73
2023/09/01 02:24:23;;;;;;;8.35;6.35;;;15.10;99.90;;;;;;5056227;28;20019;-73
2023/09/01 02:26:49;;;;;;;7.47;6.00;;;15.10;99.90;;;;;;5052788;28;20056;-73
2023/09/01 02:29:14;;;;;;;14.38;6.85;;;15.10;99.90;;;;;;5070896;28;20087;-73
2023/09/01 02:31:40;;;;;;;10.30;6.20;;;15.10;99.90;;;;;;5070328;28;20099;-74
2023/09/01 02:34:06;;;;;;;7.50;6.00;;;15.10;99.90;;;;;;5061932;28;20025;-74
2023/09/01 02:36:33;;;;;;;11.00;6.65;;;15.00;99.90;;;;;;5066352;28;20107;-73
2023/09/01 02:39:00;;;;;;;10.32;6.50;;;15.00;99.90;;;;;;5071006;28;20025;-74
2023/09/01 02:41:25;;;;;;;9.20;6.65;;;15.00;99.90;;;;;;5055848;28;20040;-74
2023/09/01 02:43:52;;;;;;;10.52;7.40;;;15.00;99.90;;;;;;5071096;28;20024;-73
2023/09/01 02:46:18;;;;;;;9.07;5.80;;;15.10;99.90;;;;;;5070326;28;20059;-73
2023/09/01 02:48:43;;;;;;;6.40;5.80;;;15.10;99.90;;;;;;5065360;28;20036;-74
2023/09/01 02:51:09;;;;;;;7.70;6.78;;;15.10;99.90;;;;;;5065148;28;20024;-73
2023/09/01 02:53:36;;;;;;;10.30;6.75;;;15.10;99.90;;;;;;5071048;28;20048;-73
2023/09/01 02:56:02;;;;;;;12.10;8.20;;;15.10;99.90;;;;;;5070242;28;20052;-74
2023/09/01 02:58:28;;;;;;;10.15;7.38;;;15.20;99.90;;;;;;5069427;28;20115;-74
2023/09/01 03:00:54;;;;;;;8.20;6.43;;;15.20;99.90;;;;;;5059556;28;20115;-74
2023/09/01 03:03:21;;;;;;;11.48;7.05;;;15.20;99.90;;;;;;5069446;28;20027;-73
2023/09/01 03:05:50;;;;;;;10.82;6.97;;;15.20;99.90;;;;;;5067727;28;20044;-73
2023/09/01 03:08:20;;;;;;;9.15;6.47;;;15.20;99.90;;;;;;5062953;28;20176;-73
2023/09/01 03:10:46;;;;;;;9.65;6.40;;;15.20;99.90;;;;;;5066206;28;20025;-73
2023/09/01 03:13:12;;;;;;;10.02;6.75;;;15.20;99.90;;;;;;5069958;28;20020;-74
2023/09/01 03:15:40;;;;;;;15.20;7.47;;;15.10;99.90;;;;;;5069425;28;20055;-73
2023/09/01 03:18:06;;;;;;;15.05;8.20;;;15.10;99.90;;;;;;5068354;28;20017;-73
2023/09/01 03:20:31;;;;;;;8.65;6.60;;;15.10;99.90;;;;;;5068752;28;20036;-74
2023/09/01 03:22:57;;;;;;;8.05;6.45;;;15.10;99.90;;;;;;5061053;28;20101;-73
2023/09/01 03:25:22;;;;;;;8.48;6.65;;;15.00;99.90;;;;;;5069464;28;20543;-73
2023/09/01 03:27:48;;;;;;;12.45;6.95;;;15.10;99.90;;;;;;5070692;28;20082;-73
2023/09/01 03:30:14;;;;;;;11.95;7.30;;;15.10;99.90;;;;;;5069650;28;20009;-74
2023/09/01 03:32:39;;;;;;;10.75;8.15;;;15.10;99.90;;;;;;5060651;28;20485;-73
2023/09/01 03:35:05;;;;;;;9.88;7.03;;;15.10;99.90;;;;;;5066262;28;20021;-73
2023/09/01 03:37:31;;;;;;;9.13;7.50;;;15.20;99.90;;;;;;5050719;28;20025;-74
2023/09/01 03:39:57;;;;;;;9.93;7.90;;;15.10;99.90;;;;;;5049946;28;20021;-73
2023/09/01 03:42:23;;;;;;;11.07;7.78;;;15.20;99.90;;;;;;5050442;28;20840;-73
2023/09/01 03:44:48;;;;;;;12.93;7.65;;;15.20;99.90;;;;;;5051058;28;20095;-74
2023/09/01 03:47:14;;;;;;;10.48;7.85;;;15.20;99.90;;;;;;5050594;28;20101;-74
2023/09/01 03:49:40;;;;;;;14.52;8.20;;;15.20;99.90;;;;;;5053926;28;20024;-73
2023/09/01 03:52:06;;;;;;;17.20;10.20;;;15.20;99.90;;;;;;5053778;28;20027;-74
2023/09/01 03:54:32;;;;;;;12.68;9.77;;;15.20;99.90;;;;;;5048993;28;20371;-73
2023/09/01 03:56:58;;;;;;;14.43;9.73;;;15.30;99.90;;;;;;5050674;28;20044;-73
2023/09/01 03:59:23;;;;;;;15.68;9.98;;;15.30;99.90;;;;;;5050814;28;20037;-73
2023/09/01 04:01:49;;;;;;;18.65;9.68;;;15.30;99.90;;;;;;5050454;28;20025;-73
2023/09/01 04:04:16;;;;;;;15.68;9.93;;;15.30;99.90;;;;;;5067127;28;20017;-74
2023/09/01 04:06:42;;;;;;;15.68;10.80;;;15.30;99.90;;;;;;5049191;28;20117;-73
2023/09/01 04:09:08;;;;;;;10.75;9.63;;;15.30;99.90;;;;;;5052127;28;20442;-73
2023/09/01 04:11:34;;;;;;;11.43;9.55;;;15.40;99.90;;;;;;5051309;28;20017;-73
2023/09/01 04:14:01;;;;;;;12.18;8.35;;;15.40;99.90;;;;;;5050925;28;20049;-73
2023/09/01 04:16:27;;;;;;;12.10;7.90;;;15.40;99.90;;;;;;5050210;28;20143;-73
2023/09/01 04:18:54;;;;;;;13.70;9.20;;;15.40;99.90;;;;;;5051648;28;20136;-73
2023/09/01 04:21:19;;;;;;;10.85;8.75;;;15.40;99.90;;;;;;5049002;28;20463;-73
2023/09/01 04:23:45;;;;;;;11.45;9.13;;;15.50;99.90;;;;;;5051673;28;20029;-73
2023/09/01 04:26:12;;;;;;;13.80;10.15;;;15.50;99.90;;;;;;5050315;28;20112;-73
2023/09/01 04:28:38;;;;;;;10.90;9.02;;;15.50;99.90;;;;;;5050690;28;20576;-73
2023/09/01 04:31:15;;;;;;;14.10;8.45;;;15.50;99.90;;;;;;5050567;28;20108;-74
2023/09/01 04:33:41;;;;;;;13.85;9.95;;;15.50;99.90;;;;;;5052752;28;20395;-73
2023/09/01 04:36:06;;;;;;;12.30;9.30;;;15.50;99.90;;;;;;5051240;28;20087;-73
2023/09/01 04:38:32;;;;;;;10.18;7.97;;;15.50;99.90;;;;;;5052902;28;20025;-74
2023/09/01 04:40:59;;;;;;;14.75;8.75;;;15.50;99.90;;;;;;5051130;28;20032;-73
2023/09/01 04:43:28;;;;;;;14.02;9.60;;;15.50;99.90;;;;;;5052609;28;20559;-74
2023/09/01 04:45:54;;;;;;;15.48;9.07;;;15.50;99.90;;;;;;5050942;28;20430;-74
2023/09/01 04:48:20;;;;;;;12.38;8.98;;;15.50;99.90;;;;;;5050872;28;20017;-73
2023/09/01 04:50:47;;;;;;;11.77;9.10;;;15.50;99.90;;;;;;5062067;28;20461;-73
2023/09/01 04:53:12;;;;;;;11.20;9.18;;;15.50;99.90;;;;;;5068130;28;20024;-73
2023/09/01 04:55:38;;;;;;;11.88;9.98;;;15.50;99.90;;;;;;5064942;28;20048;-73
2023/09/01 04:58:04;;;;;;;12.27;10.18;;;15.50;99.90;;;;;;5066367;28;20039;-73
2023/09/01 05:00:29;;;;;;;14.18;9.52;;;15.50;99.90;;;;;;5064920;28;20039;-73
2023/09/01 05:02:55;;;;;;;12.02;10.75;;;15.50;99.90;;;;;;5066806;28;20473;-73
2023/09/01 05:05:21;;;;;;;12.32;9.90;;;15.50;99.90;;;;;;5068390;28;20452;-74
2023/09/01 05:07:46;;;;;;;16.17;11.35;;;15.50;99.90;;;;;;5068518;28;20468;-73
2023/09/01 05:10:12;;;;;;;18.02;10.48;;;15.50;99.90;;;;;;5068593;28;20045;-73
2023/09/01 05:12:38;;;;;;;11.63;10.38;;;15.50;99.90;;;;;;5063269;28;20025;-73
2023/09/01 05:15:04;;;;;;;14.07;10.20;;;15.50;99.90;;;;;;5048308;28;20029;-74
2023/09/01 05:17:30;;;;;;;13.77;10.75;;;15.60;99.90;;;;;;5047469;28;20028;-73
2023/09/01 05:19:57;;;;;;;12.50;10.38;;;15.60;99.90;;;;;;5047965;28;20024;-73
2023/09/01 05:22:23;;;;;;;15.63;12.18;;;15.60;99.90;;;;;;5048950;28;20492;-73
2023/09/01 05:24:49;;;;;;;15.25;11.73;;;15.60;99.90;;;;;;5064281;28;20025;-74
2023/09/01 05:27:16;;;;;;;15.07;10.43;;;15.60;99.90;;;;;;5049351;28;20020;-73
2023/09/01 05:29:41;;;;;;;15.13;10.57;;;15.60;99.90;;;;;;5048658;28;20025;-73
2023/09/01 05:32:07;;;;;;;14.88;10.68;;;15.70;99.90;;;;;;5047430;28;20035;-73
2023/09/01 05:34:32;;;;;;;15.07;10.40;;;15.70;99.90;;;;;;5049019;28;20036;-73
2023/09/01 05:36:58;;;;;;;18.88;11.10;;;15.80;99.90;;;;;;5049415;28;20095;-74
2023/09/01 05:39:24;;;;;;;15.50;12.30;;;15.80;99.90;;;;;;5048619;28;20095;-73
2023/09/01 05:41:49;;;;;;;14.13;10.15;;;15.80;99.90;;;;;;5066408;28;20020;-73
2023/09/01 05:44:15;;;;;;;13.63;10.68;;;15.80;99.90;;;;;;5067784;28;20078;-74
2023/09/01 05:46:40;;;;;;;18.30;10.80;;;15.80;99.90;;;;;;5063346;28;20021;-74
2023/09/01 05:49:06;;;;;;;13.25;9.88;;;15.90;99.90;;;;;;5059220;28;20017;-73
2023/09/01 05:51:32;;;;;;;15.52;10.20;;;15.90;99.90;;;;;;5054960;28;20016;-74
2023/09/01 05:53:58;;;;;;;12.45;10.13;;;15.90;99.90;;;;;;5063630;28;20581;-74
2023/09/01 05:56:23;;;;;;;13.18;9.82;;;15.90;99.90;;;;;;5056716;28;20045;-74
2023/09/01 05:58:49;;;;;;;9.30;8.25;;;16.00;99.90;;;;;;5068060;28;20032;-73
2023/09/01 06:01:14;;;;;;;13.95;9.98;;;16.00;99.90;;;;;;5046588;28;20045;-73
2023/09/01 06:03:40;;;;;;;11.00;9.90;;;16.00;99.90;;;;;;5047057;28;20180;-73
2023/09/01 06:06:07;;;;;;;11.70;8.93;;;16.10;99.90;;;;;;5051192;28;20029;-73
2023/09/01 06:08:32;;;;;;;10.75;9.32;;;16.20;99.90;;;;;;5051574;28;20028;-74
2023/09/01 06:11:06;;;;;;;15.25;9.57;;;16.20;99.90;;;;;;5054844;28;20013;-74
2023/09/01 06:13:32;;;;;;;15.07;8.93;;;16.20;99.90;;;;;;5059104;28;20021;-74
2023/09/01 06:15:58;;;;;;;11.25;9.27;;;16.20;99.90;;;;;;5056004;28;20027;-73
2023/09/01 06:18:24;;;;;;;14.13;11.05;;;16.30;99.90;;;;;;5060458;28;20028;-74
2023/09/01 06:20:49;;;;;;;15.93;10.35;;;16.40;99.90;;;;;;5056992;28;20021;-74
2023/09/01 06:23:15;;;;;;;13.05;10.90;;;16.40;99.90;;;;;;5060277;28;20019;-74
2023/09/01 06:25:41;;;;;;;14.20;10.93;;;16.50;99.90;;;;;;5056523;28;20433;-73
2023/09/01 06:28:06;;;;;;;11.00;9.27;;;16.60;99.90;;;;;;5058319;28;20020;-74
2023/09/01 06:30:32;;;;;;;13.73;10.77;;;16.70;99.90;;;;;;5056124;28;20497;-73
2023/09/01 06:32:57;;;;;;;16.92;12.70;;;16.80;99.90;;;;;;5059602;28;20021;-73
2023/09/01 06:35:23;;;;;;;12.38;10.45;;;16.90;99.90;;;;;;5056163;28;20021;-74
2023/09/01 06:37:48;;;;;;;13.50;9.52;;;16.90;99.90;;;;;;5059790;28;20036;-74
2023/09/01 06:40:14;;;;;;;12.57;9.77;;;17.00;99.90;;;;;;5055632;28;20036;-74
2023/09/01 06:42:39;;;;;;;11.63;9.48;;;17.00;99.90;;;;;;5058320;28;20056;-74
2023/09/01 06:45:06;;;;;;;16.33;10.43;;;17.10;99.90;;;;;;5054914;28;20024;-74
2023/09/01 06:47:31;;;;;;;15.90;10.32;;;17.10;99.90;;;;;;5058505;28;20116;-74
2023/09/01 06:49:57;;;;;;;12.85;8.32;;;17.10;99.90;;;;;;5055245;28;20158;-74
2023/09/01 06:52:22;;;;;;;13.02;9.75;;;17.20;99.90;;;;;;5050961;28;20028;-74
2023/09/01 06:54:49;;;;;;;14.63;10.50;;;17.20;99.90;;;;;;5069932;28;20133;-74
2023/09/01 06:57:15;;;;;;;13.95;9.98;;;17.20;99.90;;;;;;5067464;28;20031;-74
2023/09/01 06:59:40;;;;;;;11.70;9.20;;;17.30;99.90;;;;;;5057294;28;20029;-74
2023/09/01 07:02:06;;;;;;;18.05;9.18;;;17.30;99.90;;;;;;5060406;28;20335;-74
2023/09/01 07:04:31;;;;;;;14.85;8.98;;;17.40;99.90;;;;;;5057386;28;20016;-74
2023/09/01 07:06:57;;;;;;;13.40;8.63;;;17.50;99.90;;;;;;5060251;28;20020;-74
2023/09/01 07:09:23;;;;;;;12.65;9.07;;;17.60;99.90;;;;;;5061092;28;20025;-74
2023/09/01 07:11:48;;;;;;;10.88;9.07;;;17.60;99.90;;;;;;5067674;28;20025;-74
2023/09/01 07:14:14;;;;;;;10.68;7.80;;;17.70;99.90;;;;;;5061346;28;20032;-74
2023/09/01 07:16:39;;;;;;;10.82;7.70;;;17.80;99.90;;;;;;5042595;28;20040;-72
2023/09/01 07:19:05;;;;;;;13.63;8.00;;;17.90;99.90;;;;;;5069302;28;20111;-72
2023/09/01 07:21:30;;;;;;;12.02;8.20;;;17.90;99.90;;;;;;5069005;28;20650;-72
2023/09/01 07:23:56;;;;;;;11.05;7.38;;;18.00;99.90;;;;;;5052508;28;20434;-73
2023/09/01 07:26:21;;;;;;;8.65;7.63;;;18.00;99.90;;;;;;5061702;28;20524;-73
2023/09/01 07:28:47;;;;;;;9.82;7.30;;;18.00;99.90;;;;;;5059549;28;20440;-73
2023/09/01 07:31:13;;;;;;;14.52;7.72;;;18.00;99.90;;;;;;5084244;28;20081;-73
2023/09/01 07:33:42;;;;;;;9.40;6.13;;;18.10;99.90;;;;;;5070007;28;20024;-73
2023/09/01 07:36:11;;;;;;;8.77;6.15;;;18.10;99.90;;;;;;5067635;28;20027;-73
2023/09/01 07:38:40;;;;;;;9.05;5.90;;;18.20;99.90;;;;;;5069511;28;20025;-73
2023/09/01 07:41:09;;;;;;;9.50;5.75;;;18.20;99.90;;;;;;5054262;28;20025;-73
2023/09/01 07:43:35;;;;;;;8.45;5.07;;;18.20;99.90;;;;;;5068207;28;20073;-72
2023/09/01 07:46:01;;;;;;;12.02;5.45;;;18.30;99.90;;;;;;5078681;28;20021;-74
2023/09/01 07:48:27;;;;;;;10.68;6.40;;;18.40;99.90;;;;;;5060650;28;20166;-73
2023/09/01 07:50:53;;;;;;;7.03;5.78;;;18.40;99.90;;;;;;5055234;28;20032;-73
2023/09/01 07:53:19;;;;;;;5.75;5.20;;;18.40;99.90;;;;;;5048564;28;20096;-73
2023/09/01 07:55:44;;;;;;;9.63;5.55;;;18.40;99.90;;;;;;5049204;28;20178;-73
2023/09/01 07:58:10;;;;;;;8.50;5.40;;;18.50;99.90;;;;;;5050140;28;20095;-73
2023/09/01 08:00:37;;;;;;;8.60;6.03;;;18.60;99.90;;;;;;5048082;28;20036;-73
2023/09/01 08:03:03;;;;;;;9.45;4.55;;;18.60;99.90;;;;;;5059521;28;20058;-72
2023/09/01 08:05:29;;;;;;;7.57;4.97;;;18.50;99.90;;;;;;5056943;28;20127;-72
2023/09/01 08:07:54;;;;;;;5.55;4.90;;;18.60;99.90;;;;;;5055430;28;20025;-72
2023/09/01 08:10:20;;;;;;;5.53;4.88;;;18.60;99.90;;;;;;5056140;28;20043;-72
2023/09/01 08:12:45;;;;;;;9.57;4.90;;;18.60;99.90;;;;;;5055178;28;20029;-72
2023/09/01 08:15:11;;;;;;;8.50;6.35;;;18.60;99.90;;;;;;5059619;28;20503;-72
2023/09/01 08:17:37;;;;;;;9.68;6.80;;;18.70;99.90;;;;;;5052773;28;20433;-72
2023/09/01 08:20:04;;;;;;;11.10;6.45;;;18.70;99.90;;;;;;5049291;28;20048;-72
2023/09/01 08:22:31;;;;;;;8.32;6.50;;;18.80;99.90;;;;;;5049582;28;20092;-72
2023/09/01 08:24:57;;;;;;;9.25;7.22;;;18.80;99.90;;;;;;5050085;28;20040;-72
2023/09/01 08:27:22;;;;;;;8.63;7.05;;;18.90;99.90;;;;;;5050126;28;20059;-72
2023/09/01 08:29:48;;;;;;;11.30;7.15;;;18.90;99.90;;;;;;5054580;28;20094;-72
2023/09/01 08:32:13;;;;;;;14.40;6.97;;;19.00;99.90;;;;;;5048142;28;20083;-72
2023/09/01 08:34:39;;;;;;;8.85;7.25;;;19.00;99.90;;;;;;5050936;28;20033;-72
2023/09/01 08:37:05;;;;;;;10.18;6.78;;;19.00;99.90;;;;;;5053955;28;20028;-72
2023/09/01 08:39:31;;;;;;;9.35;8.30;;;19.10;99.90;;;;;;5052540;28;20470;-72
2023/09/01 08:41:58;;;;;;;8.30;6.70;;;19.10;99.90;;;;;;5055367;28;20524;-72
2023/09/01 08:44:27;;;;;;;8.10;6.38;;;19.10;99.90;;;;;;5052335;28;20021;-72
2023/09/01 08:46:53;;;;;;;13.40;6.32;;;19.10;99.90;;;;;;5055321;28;20036;-72
2023/09/01 08:49:19;;;;;;;6.45;5.65;;;19.10;99.90;;;;;;5052406;28;20420;-72
2023/09/01 08:51:53;;;;;;;8.93;6.32;;;19.10;99.90;;;;;;5062240;28;20096;-72
2023/09/01 08:54:19;;;;;;;9.60;6.25;;;19.00;99.90;;;;;;5054942;28;20020;-72
2023/09/01 08:56:45;;;;;;;8.68;6.88;;;19.00;99.90;;;;;;5054511;28;20047;-72
2023/09/01 08:59:10;;;;;;;8.60;6.88;;;19.10;99.90;;;;;;5059278;28;20066;-72
2023/09/01 09:01:37;;;;;;;8.45;6.32;;;19.00;99.90;;;;;;5054202;28;20381;-72
2023/09/01 09:04:07;;;;;;;9.80;6.28;;;19.00;99.90;;;;;;5058218;28;20024;-72
2023/09/01 09:06:39;;;;;;;10.07;6.50;;;19.00;99.90;;;;;;5054288;28;20039;-71
2023/09/01 09:09:14;;;;;;;9.40;6.18;;;19.10;99.90;;;;;;5050095;28;20503;-72
2023/09/01 09:11:57;;;;;;;10.32;5.63;;;19.00;99.90;;;;;;5042043;28;20120;-71
2023/09/01 09:14:30;;;;;;;7.95;6.35;;;19.10;99.90;;;;;;5045211;28;20013;-72
2023/09/01 09:16:57;;;;;;;6.63;5.82;;;19.10;99.90;;;;;;5045996;28;20116;-71
2023/09/01 09:19:24;;;;;;;6.78;5.50;;;19.10;99.90;;;;;;5045262;28;20029;-72
2023/09/01 09:22:05;;;;;;;8.13;6.60;;;19.10;99.90;;;;;;5045237;28;20080;-72
2023/09/01 09:24:36;;;;;;;8.13;6.72;;;19.20;99.90;;;;;;5045052;28;20032;-72
2023/09/01 09:27:03;;;;;;;9.43;7.15;;;19.20;99.90;;;;;;5045567;28;20032;-72
2023/09/01 09:29:42;;;;;;;7.30;6.13;;;19.20;99.90;;;;;;5045563;28;20355;-71
2023/09/01 09:32:22;;;;;;;8.75;7.10;;;19.20;99.90;;;;;;5045344;28;20131;-72
2023/09/01 09:35:23;;;;;;;7.38;6.68;;;19.30;99.90;;;;;;5039037;28;20021;-71
2023/09/01 09:37:59;;;;;;;8.57;7.25;;;19.30;99.90;;;;;;5045262;28;20438;-72
2023/09/01 09:40:25;;;;;;;8.98;8.05;;;19.30;99.90;;;;;;5049449;28;20021;-71
2023/09/01 09:42:51;;;;;;;9.93;8.07;;;19.30;99.90;;;;;;5049679;28;20021;-71
2023/09/01 09:45:26;;;;;;;9.55;8.05;;;19.20;99.90;;;;;;5049544;28;20537;-71
2023/09/01 09:47:53;;;;;;;7.13;6.43;;;19.20;99.90;;;;;;5050230;28;20383;-72
2023/09/01 09:50:20;;;;;;;13.25;8.90;;;19.10;99.90;;;;;;5057544;28;20028;-72
2023/09/01 09:52:52;;;;;;;12.15;8.27;;;19.10;99.90;;;;;;5053045;28;20549;-71
2023/09/01 09:55:29;;;;;;;12.47;8.40;;;19.00;99.90;;;;;;5049290;28;20455;-72
2023/09/01 09:58:07;;;;;;;10.00;8.52;;;19.00;99.90;;;;;;5048893;28;20013;-71
2023/09/01 10:00:54;;;;;;;10.48;8.02;;;18.90;99.90;;;;;;5048585;28;20035;-71
2023/09/01 10:03:23;;;;;;;9.02;8.13;;;18.90;99.90;;;;;;5046134;28;20102;-73
2023/09/01 10:05:53;;;;;;;12.25;9.63;;;18.90;99.90;;;;;;5049444;28;20029;-72
2023/09/01 10:08:20;;;;;;;13.73;8.73;;;18.90;99.90;;;;;;5048404;28;20025;-72
2023/09/01 10:10:46;;;;;;;12.82;10.30;;;18.90;99.90;;;;;;5048757;28;20033;-72
2023/09/01 10:13:12;;;;;;;10.50;9.50;;;18.90;99.90;;;;;;5047902;28;20097;-72
2023/09/01 10:15:38;;;;;;;8.90;8.00;;;18.90;99.90;;;;;;5052718;28;20077;-72
2023/09/01 10:18:08;;;;;;;10.07;8.05;;;18.80;99.90;;;;;;5048884;28;20104;-72
2023/09/01 10:20:43;;;;;;;10.43;6.90;;;18.80;99.90;;;;;;5053936;28;20498;-72
2023/09/01 10:23:11;;;;;;;9.38;7.07;;;18.80;99.90;;;;;;5069248;28;20055;-72
2023/09/01 10:25:36;;;;;;;8.95;7.05;;;18.80;99.90;;;;;;5063181;28;20028;-72
2023/09/01 10:28:04;;;;;;;10.55;7.53;;;18.80;99.90;;;;;;5049783;28;20029;-72
2023/09/01 10:30:35;;;;;;;9.82;7.15;;;18.80;99.90;;;;;;5065738;28;20051;-72
2023/09/01 10:33:16;;;;;;;8.88;6.28;;;18.80;99.90;;;;;;5067590;28;20020;-72
2023/09/01 10:35:51;;;;;;;8.15;6.32;;;18.80;99.90;;;;;;5066914;28;20032;-72
2023/09/01 10:38:36;;;;;;;6.13;5.45;;;18.70;99.90;;;;;;5064294;28;20359;-72
2023/09/01 10:41:02;;;;;;;7.97;6.10;;;18.70;99.90;;;;;;5052957;28;20039;-72
2023/09/01 10:43:34;;;;;;;6.03;5.50;;;18.80;99.90;;;;;;5064045;28;20049;-72
2023/09/01 10:46:12;;;;;;;5.78;5.20;;;18.80;99.90;;;;;;5067547;28;20438;-72
2023/09/01 10:48:53;;;;;;;7.95;4.75;;;18.80;99.90;;;;;;5063835;28;20036;-72
2023/09/01 10:51:37;;;;;;;5.43;4.80;;;18.80;99.90;;;;;;5054110;28;20039;-73
2023/09/01 10:54:15;;;;;;;5.18;4.07;;;18.80;99.90;;;;;;5051244;28;20483;-72
2023/09/01 10:57:02;;;;;;;5.13;4.68;;;18.80;99.90;;;;;;5039111;28;20041;-72
2023/09/01 10:59:35;;;;;;;6.22;5.63;;;18.80;99.90;;;;;;5051756;28;20013;-72
2023/09/01 11:02:21;;;;;;;6.05;5.45;;;18.80;99.90;;;;;;5051217;28;20111;-72
2023/09/01 11:04:47;;;;;;;6.53;4.97;;;18.80;99.90;;;;;;5039723;28;20045;-72
2023/09/01 11:07:13;;;;;;;5.90;5.40;;;18.90;99.90;;;;;;5052548;28;20083;-72
2023/09/01 11:09:39;;;;;;;7.38;5.78;;;18.90;99.90;;;;;;5051623;28;20541;-72
2023/09/01 11:12:06;;;;;;;8.52;6.50;;;19.00;99.90;;;;;;5052114;28;20039;-72
2023/09/01 11:14:33;;;;;;;6.68;5.40;;;19.00;99.90;;;;;;5051480;28;20063;-72
2023/09/01 11:17:03;;;;;;;6.95;6.25;;;19.10;99.90;;;;;;5051509;28;20031;-72
2023/09/01 11:19:49;;;;;;;6.25;5.65;;;19.00;99.90;;;;;;5051279;28;20486;-72
2023/09/01 11:22:14;;;;;;;5.88;5.38;;;19.00;99.90;;;;;;5050930;28;20028;-73
2023/09/01 11:24:45;;;;;;;6.93;6.32;;;19.10;99.90;;;;;;5051622;28;20458;-72
2023/09/01 11:27:10;;;;;;;6.88;5.10;;;19.20;99.90;;;;;;5056534;28;20074;-72
2023/09/01 11:29:38;;;;;;;7.88;5.93;;;19.20;99.90;;;;;;5058472;28;20021;-73
2023/09/01 11:32:03;;;;;;;7.68;6.97;;;19.20;99.90;;;;;;5056160;28;20401;-72
2023/09/01 11:34:39;;;;;;;6.93;6.35;;;19.20;99.90;;;;;;5058932;28;20125;-72
2023/09/01 11:37:05;;;;;;;8.40;7.68;;;19.30;99.90;;;;;;5053792;28;20036;-72
2023/09/01 11:39:30;;;;;;;8.05;7.35;;;19.20;99.90;;;;;;5055097;28;20029;-72
2023/09/01 11:41:56;;;;;;;7.78;7.18;;;19.20;99.90;;;;;;5059402;28;20159;-72
2023/09/01 11:44:22;;;;;;;8.15;7.45;;;19.20;99.90;;;;;;5063251;28;20032;-72
2023/09/01 11:46:48;;;;;;;8.75;7.90;;;19.20;99.90;;;;;;5049644;28;20497;-72
2023/09/01 11:49:16;;;;;;;8.43;7.63;;;19.20;99.90;;;;;;5050655;28;20028;-73
2023/09/01 11:51:41;;;;;;;9.90;8.93;;;19.10;99.90;;;;;;5059194;28;20151;-72
2023/09/01 11:54:08;;;;;;;21.75;9.85;;;19.20;99.90;;;;;;5057368;28;20154;-74
2023/09/01 11:56:34;;;;;;;9.98;8.98;;;19.20;99.90;;;;;;5057865;28;20072;-74
2023/09/01 11:59:00;;;;;;;8.68;7.80;;;19.30;99.90;;;;;;5064323;28;20035;-72
2023/09/01 12:01:41;;;;;;;8.18;7.38;;;19.40;99.90;;;;;;5053572;28;20033;-72
2023/09/01 12:04:09;;;;;;;9.23;8.32;;;19.60;99.90;;;;;;5049714;28;20019;-72
2023/09/01 12:06:44;;;;;;;9.45;8.65;;;19.80;99.90;;;;;;5057126;28;20027;-72
2023/09/01 12:09:14;;;;;;;8.90;8.20;;;20.00;99.90;;;;;;5057079;28;20048;-72
2023/09/01 12:12:00;;;;;;;7.93;7.18;;;20.10;99.90;;;;;;5050691;28;20552;-72
2023/09/01 12:14:32;;;;;;;9.02;8.10;;;20.10;99.90;;;;;;5049988;28;20498;-72
2023/09/01 12:16:59;;;;;;;9.13;8.38;;;20.20;99.90;;;;;;5050245;28;20025;-72
2023/09/01 12:19:26;;;;;;;9.10;8.25;;;20.30;99.90;;;;;;5058285;28;20052;-72
2023/09/01 12:21:53;;;;;;;8.13;7.35;;;20.40;99.90;;;;;;5049516;28;20040;-72
2023/09/01 12:24:19;;;;;;;8.30;7.60;;;20.60;99.90;;;;;;5051109;28;20486;-72
2023/09/01 12:26:45;;;;;;;8.50;7.80;;;20.90;99.90;;;;;;5050641;28;20036;-72
2023/09/01 12:29:11;;;;;;;11.15;8.02;;;21.20;99.90;;;;;;5061542;28;20082;-72
2023/09/01 12:31:37;;;;;;;10.50;8.32;;;21.40;99.90;;;;;;5057238;28;20481;-72
2023/09/01 12:34:02;;;;;;;8.30;7.50;;;21.60;99.90;;;;;;5051648;28;20087;-72
2023/09/01 12:36:28;;;;;;;8.48;7.78;;;21.60;99.90;;;;;;5063671;28;20060;-73
2023/09/01 12:38:53;;;;;;;9.15;8.27;;;21.60;99.90;;;;;;5062595;28;20028;-72
2023/09/01 12:41:19;;;;;;;9.60;8.52;;;21.60;99.90;;;;;;5069229;28;20071;-73
2023/09/01 12:43:44;;;;;;;8.30;7.60;;;21.60;99.90;;;;;;5067475;28;20024;-72